Time;durP1;ratioP1;P1;durP2;ratioP2;P2;SDS_P1;SDS_P2;PMS_P1;PMS_P2;Temp;Humidity;BMP_temperature;BMP_pressure;BME280_temperature;BME280_humidity;BME280_pressure;Samples;Min_cycle;Max_cycle;Signal;HPM_P1;HPM_P2
2023/10/27 00:01:08;;;;;;;;;0.00;0.00;;;;;15.44;60.00;99229.22;5080058;27;45705;-88
2023/10/27 00:03:33;;;;;;;;;1.00;0.00;;;;;15.45;60.13;99238.84;5079447;27;45556;-88
2023/10/27 00:05:59;;;;;;;;;0.00;0.00;;;;;15.31;59.81;99217.94;5079166;27;45327;-87
2023/10/27 00:08:25;;;;;;;;;0.00;0.00;;;;;15.43;60.15;99241.47;5080203;28;45298;-88
2023/10/27 00:10:50;;;;;;;;;0.00;0.00;;;;;15.42;60.04;99242.38;5079891;27;45314;-87
2023/10/27 00:13:16;;;;;;;;;0.00;0.00;;;;;15.41;59.97;99239.75;5079324;27;45611;-87
2023/10/27 00:15:42;;;;;;;;;0.00;0.00;;;;;15.37;60.39;99240.69;5079865;27;45385;-87
2023/10/27 00:18:07;;;;;;;;;0.00;0.00;;;;;15.26;60.61;99232.88;5079827;27;45346;-87
2023/10/27 00:20:33;;;;;;;;;0.00;0.00;;;;;14.81;60.68;99164.09;5080074;27;45419;-87
2023/10/27 00:22:59;;;;;;;;;1.00;0.00;;;;;15.28;61.13;99244.28;5079531;27;46134;-75
2023/10/27 00:25:24;;;;;;;;;0.00;0.00;;;;;15.18;61.45;99256.66;5079750;28;45486;-88
2023/10/27 00:27:51;;;;;;;;;0.00;0.00;;;;;15.06;62.12;99244.50;5079618;27;45238;-85
2023/10/27 00:30:17;;;;;;;;;0.00;0.00;;;;;14.83;62.64;99210.50;5079558;28;45708;-87
2023/10/27 00:32:43;;;;;;;;;0.00;0.00;;;;;14.98;62.98;99245.44;5079042;27;45967;-87
2023/10/27 00:35:09;;;;;;;;;0.00;0.00;;;;;14.87;63.55;99238.50;5103025;28;45244;-73
2023/10/27 00:37:36;;;;;;;;;0.00;0.00;;;;;14.75;62.72;99222.84;5103287;28;44782;-73
2023/10/27 00:40:03;;;;;;;;;0.00;0.00;;;;;14.67;62.25;99220.28;5104180;27;44845;-87
2023/10/27 00:42:30;;;;;;;;;0.00;0.00;;;;;14.85;62.11;99244.66;5080308;27;46066;-87
2023/10/27 00:45:00;;;;;;;;;0.00;0.00;;;;;14.78;62.57;99243.88;5080705;27;45258;-87
2023/10/27 00:47:28;;;;;;;;;0.00;0.00;;;;;14.57;62.99;99223.84;5079887;27;45380;-87
2023/10/27 00:49:55;;;;;;;;;0.00;0.00;;;;;14.63;63.05;99243.97;5079049;27;45321;-84
2023/10/27 00:52:24;;;;;;;;;0.33;0.00;;;;;14.48;63.73;99231.75;5078608;28;45491;-85
2023/10/27 00:54:53;;;;;;;;;0.00;0.00;;;;;14.51;63.56;99252.78;5078791;27;45535;-87
2023/10/27 00:57:19;;;;;;;;;0.00;0.00;;;;;14.41;64.41;99253.72;5079215;27;45379;-87
2023/10/27 00:59:46;;;;;;;;;3.00;1.00;;;;;13.97;64.15;99184.81;5079095;27;45326;-87
2023/10/27 01:02:11;;;;;;;;;0.00;0.00;;;;;14.23;63.65;99228.44;5077735;28;45334;-87
2023/10/27 01:04:38;;;;;;;;;2.75;2.00;;;;;14.19;64.32;99235.47;5078707;27;45289;-87
2023/10/27 01:07:04;;;;;;;;;7.00;6.50;;;;;14.28;64.87;99253.81;5078851;27;45229;-86
2023/10/27 01:09:30;;;;;;;;;6.25;5.00;;;;;14.10;64.38;99231.13;5079086;27;45470;-87
2023/10/27 01:11:56;;;;;;;;;6.00;6.00;;;;;14.21;64.44;99245.97;5077049;28;45600;-87
2023/10/27 01:14:22;;;;;;;;;6.50;5.00;;;;;14.19;64.39;99250.34;5077304;28;45707;-87
2023/10/27 01:16:49;;;;;;;;;3.00;1.67;;;;;14.15;65.07;99256.50;5077233;28;45346;-87
2023/10/27 01:19:15;;;;;;;;;1.33;1.33;;;;;14.08;65.31;99261.75;5078630;27;45495;-87
2023/10/27 01:21:41;;;;;;;;;2.33;2.33;;;;;14.02;65.64;99266.19;5080287;27;45407;-87
2023/10/27 01:24:08;;;;;;;;;0.00;0.00;;;;;13.83;64.67;99226.91;5081568;27;45246;-86
2023/10/27 01:26:33;;;;;;;;;3.00;1.67;;;;;13.97;65.33;99262.72;5080262;28;45491;-86
2023/10/27 01:28:59;;;;;;;;;0.33;0.00;;;;;13.93;64.97;99265.34;5081188;27;45241;-87
2023/10/27 01:31:25;;;;;;;;;0.00;0.00;;;;;13.83;64.59;99242.63;5078461;28;45519;-87
2023/10/27 01:33:50;;;;;;;;;0.00;0.00;;;;;14.00;64.36;99260.06;5078210;27;45220;-84
2023/10/27 01:36:16;;;;;;;;;0.00;0.00;;;;;13.89;64.23;99234.75;5078368;27;45340;-86
2023/10/27 01:38:41;;;;;;;;;0.00;0.00;;;;;13.84;63.94;99219.88;5078669;27;45278;-86
2023/10/27 01:41:07;;;;;;;;;0.00;0.00;;;;;14.05;64.00;99256.53;5078113;27;45868;-86
2023/10/27 01:43:33;;;;;;;;;0.00;0.00;;;;;14.07;63.93;99254.78;5078538;27;45833;-86
2023/10/27 01:45:58;;;;;;;;;0.00;0.00;;;;;13.93;63.86;99228.59;5078836;27;45355;-86
2023/10/27 01:48:24;;;;;;;;;0.33;0.00;;;;;14.00;63.64;99241.69;5078191;28;45567;-86
2023/10/27 01:50:50;;;;;;;;;0.00;0.00;;;;;14.00;63.70;99247.81;5077896;27;45503;-86
2023/10/27 01:53:16;;;;;;;;;2.33;1.00;;;;;13.86;64.57;99223.38;5077843;27;45263;-88
2023/10/27 01:55:41;;;;;;;;;0.00;0.00;;;;;13.96;64.46;99239.97;5078136;27;45253;-87
2023/10/27 01:58:09;;;;;;;;;0.75;0.00;;;;;13.94;64.34;99237.34;5078062;27;45442;-86
2023/10/27 02:00:34;;;;;;;;;0.00;0.00;;;;;13.95;64.18;99225.97;5078005;27;46068;-75
2023/10/27 02:03:00;;;;;;;;;0.00;0.00;;;;;13.95;63.90;99217.19;5078030;27;45447;-86
2023/10/27 02:05:26;;;;;;;;;0.00;0.00;;;;;14.04;63.18;99220.66;5077934;27;45479;-87
2023/10/27 02:07:52;;;;;;;;;0.00;0.00;;;;;14.12;62.88;99224.13;5078184;27;45454;-86
2023/10/27 02:10:17;;;;;;;;;0.00;0.00;;;;;14.12;63.23;99232.00;5077840;27;45400;-87
2023/10/27 02:12:43;;;;;;;;;0.00;0.00;;;;;14.10;63.10;99227.63;5077782;27;45223;-86
2023/10/27 02:15:09;;;;;;;;;0.00;0.00;;;;;14.07;63.53;99220.66;5077928;27;45429;-86
2023/10/27 02:17:35;;;;;;;;;0.00;0.00;;;;;14.01;63.91;99210.19;5078173;27;45357;-86
2023/10/27 02:20:00;;;;;;;;;0.00;0.00;;;;;13.99;63.77;99206.69;5077719;28;45468;-86
2023/10/27 02:22:26;;;;;;;;;0.00;0.00;;;;;13.99;63.77;99200.56;5077659;28;45390;-88
2023/10/27 02:24:51;;;;;;;;;0.00;0.00;;;;;14.04;63.45;99212.78;5077591;27;45231;-87
2023/10/27 02:27:17;;;;;;;;;0.00;0.00;;;;;13.93;63.29;99191.84;5077752;27;45496;-87
2023/10/27 02:29:42;;;;;;;;;0.00;0.00;;;;;14.06;63.23;99200.50;5079362;27;45337;-87
2023/10/27 02:32:08;;;;;;;;;0.00;0.00;;;;;14.02;62.81;99183.03;5080947;27;45455;-86
2023/10/27 02:34:34;;;;;;;;;0.00;0.00;;;;;14.08;63.06;99193.50;5081358;27;45283;-87
2023/10/27 02:36:59;;;;;;;;;0.67;0.00;;;;;14.17;62.74;99208.34;5080835;28;45484;-86
2023/10/27 02:39:25;;;;;;;;;0.00;0.00;;;;;14.17;62.95;99210.97;5080786;27;45507;-87
2023/10/27 02:41:50;;;;;;;;;0.00;0.00;;;;;14.13;63.46;99206.63;5080709;27;45366;-87
2023/10/27 02:44:16;;;;;;;;;2.00;0.00;;;;;14.11;63.26;99200.50;5080967;28;45530;-86
2023/10/27 02:46:42;;;;;;;;;0.00;0.00;;;;;14.08;63.27;99201.38;5080965;27;45295;-87
2023/10/27 02:49:07;;;;;;;;;0.00;0.00;;;;;14.08;63.59;99192.63;5080405;27;45465;-79
2023/10/27 02:51:33;;;;;;;;;0.00;0.00;;;;;14.05;63.51;99190.91;5080783;27;45238;-86
2023/10/27 02:53:59;;;;;;;;;0.00;0.00;;;;;14.04;63.47;99185.66;5080540;27;45321;-87
2023/10/27 02:56:24;;;;;;;;;0.00;0.00;;;;;14.04;63.55;99180.41;5080798;27;45569;-85
2023/10/27 02:58:50;;;;;;;;;0.00;0.00;;;;;14.06;63.31;99190.00;5080305;27;45849;-86
2023/10/27 03:01:16;;;;;;;;;0.00;0.00;;;;;14.06;63.41;99184.75;5080432;27;45348;-86
2023/10/27 03:03:43;;;;;;;;;0.00;0.00;;;;;14.08;63.17;99196.13;5080140;27;46203;-86
2023/10/27 03:06:13;;;;;;;;;0.00;0.00;;;;;14.10;63.13;99191.72;5080656;27;45550;-86
2023/10/27 03:08:41;;;;;;;;;0.00;0.00;;;;;13.91;62.95;99156.84;5080175;27;46311;-85
2023/10/27 03:11:08;;;;;;;;;0.00;0.00;;;;;14.11;62.87;99192.63;5079055;27;45418;-86
2023/10/27 03:13:34;;;;;;;;;0.00;0.00;;;;;13.99;63.13;99166.44;5079791;27;45391;-87
2023/10/27 03:16:00;;;;;;;;;0.00;0.00;;;;;13.85;63.97;99140.28;5080330;27;45406;-87
2023/10/27 03:18:26;;;;;;;;;0.00;0.00;;;;;14.06;63.18;99170.75;5079990;27;45932;-87
2023/10/27 03:20:56;;;;;;;;;0.00;0.00;;;;;14.03;62.97;99163.78;5079957;27;45345;-84
2023/10/27 03:23:23;;;;;;;;;0.00;0.00;;;;;13.97;62.91;99147.19;5079968;27;45282;-85
2023/10/27 03:25:48;;;;;;;;;0.00;0.00;;;;;14.06;62.96;99163.75;5080187;27;45411;-86
2023/10/27 03:28:14;;;;;;;;;0.00;0.00;;;;;14.05;62.86;99156.75;5079735;27;45787;-86
2023/10/27 03:30:39;;;;;;;;;0.00;0.00;;;;;14.07;62.69;99155.00;5079999;28;45739;-74
2023/10/27 03:33:05;;;;;;;;;0.00;0.00;;;;;14.06;62.38;99157.63;5080099;27;45305;-86
2023/10/27 03:35:31;;;;;;;;;0.00;0.00;;;;;14.05;63.00;99166.41;5080233;27;45445;-85
2023/10/27 03:37:57;;;;;;;;;0.00;0.00;;;;;14.01;63.36;99164.69;5079749;27;45501;-86
2023/10/27 03:40:22;;;;;;;;;2.00;0.00;;;;;13.98;63.80;99156.81;5079004;28;45346;-86
2023/10/27 03:42:48;;;;;;;;;2.00;1.25;;;;;13.94;64.25;99155.94;5079746;27;45468;-86
2023/10/27 03:45:13;;;;;;;;;2.00;2.00;;;;;13.79;64.28;99135.06;5080011;28;45238;-86
2023/10/27 03:47:39;;;;;;;;;0.00;0.00;;;;;13.70;64.31;99123.69;5079724;27;45525;-85
2023/10/27 03:50:05;;;;;;;;;2.00;2.00;;;;;13.83;63.84;99144.66;5079519;27;45408;-86
2023/10/27 03:52:31;;;;;;;;;0.00;0.00;;;;;13.78;64.18;99144.66;5079761;27;45409;-87
2023/10/27 03:54:56;;;;;;;;;1.00;1.00;;;;;13.61;64.48;99126.41;5079723;28;45302;-85
2023/10/27 03:57:22;;;;;;;;;1.00;1.00;;;;;13.70;64.72;99141.22;5079456;27;45510;-86
2023/10/27 03:59:47;;;;;;;;;0.00;0.00;;;;;13.67;64.56;99128.13;5079165;27;45397;-87
2023/10/27 04:02:15;;;;;;;;;0.00;0.00;;;;;13.60;64.47;99121.16;5079495;27;45272;-87
2023/10/27 04:04:41;;;;;;;;;0.00;0.00;;;;;13.60;64.03;99126.41;5080049;27;45454;-86
2023/10/27 04:07:07;;;;;;;;;0.00;0.00;;;;;13.67;63.65;99122.88;5079591;28;45499;-87
2023/10/27 04:09:32;;;;;;;;;0.00;0.00;;;;;13.72;63.38;99123.69;5077194;27;45350;-83
2023/10/27 04:11:58;;;;;;;;;0.00;0.00;;;;;13.75;63.27;99133.31;5077179;27;45515;-86
2023/10/27 04:14:24;;;;;;;;;0.00;0.00;;;;;13.76;62.89;99128.06;5074518;28;45393;-85
2023/10/27 04:16:50;;;;;;;;;0.00;0.00;;;;;13.78;62.89;99126.28;5077736;27;45468;-86
2023/10/27 04:19:15;;;;;;;;;0.00;0.00;;;;;13.54;62.67;99064.31;5077297;28;45386;-73
2023/10/27 04:21:41;;;;;;;;;0.00;0.00;;;;;13.82;62.16;99100.91;5077951;27;45555;-85
2023/10/27 04:24:07;;;;;;;;;0.00;0.00;;;;;13.76;62.45;99080.81;5078538;27;45496;-86
2023/10/27 04:26:32;;;;;;;;;0.00;0.00;;;;;13.92;62.15;99110.44;5077715;27;45877;-81
2023/10/27 04:28:58;;;;;;;;;0.00;0.00;;;;;13.96;61.92;99113.94;5078100;28;45404;-85
2023/10/27 04:31:25;;;;;;;;;0.00;0.00;;;;;13.90;61.70;99080.72;5068333;28;45332;-85
2023/10/27 04:33:51;;;;;;;;;0.00;0.00;;;;;14.00;61.72;99094.66;5077674;27;45433;-86
2023/10/27 04:36:17;;;;;;;;;0.00;0.00;;;;;14.00;61.73;99092.91;5077925;27;45990;-85
2023/10/27 04:38:45;;;;;;;;;0.00;0.00;;;;;13.99;61.54;99088.53;5078064;28;45450;-79
2023/10/27 04:41:11;;;;;;;;;0.67;0.00;;;;;13.99;61.43;99090.31;5078537;27;45507;-85
2023/10/27 04:43:37;;;;;;;;;1.00;0.00;;;;;14.09;60.95;99100.72;5077042;28;45435;-85
2023/10/27 04:46:03;;;;;;;;;1.00;0.00;;;;;14.05;60.85;99090.25;5077796;27;45542;-87
2023/10/27 04:48:28;;;;;;;;;0.00;0.00;;;;;14.12;61.07;99105.97;5078039;28;45477;-86
2023/10/27 04:51:03;;;;;;;;;1.00;1.00;;;;;14.10;61.69;99117.34;5079115;27;45541;-86
2023/10/27 04:53:29;;;;;;;;;0.00;0.00;;;;;14.04;62.28;99120.00;5079902;27;45343;-85
2023/10/27 04:55:55;;;;;;;;;0.00;0.00;;;;;13.83;62.56;99108.78;5080621;28;45512;-84
2023/10/27 04:58:21;;;;;;;;;0.00;0.00;;;;;13.89;62.88;99121.84;5078237;27;45389;-85
2023/10/27 05:00:47;;;;;;;;;0.00;0.00;;;;;13.87;62.45;99122.75;5077864;27;45416;-86
2023/10/27 05:03:13;;;;;;;;;1.00;0.00;;;;;13.66;61.91;99077.38;5077880;27;45440;-84
2023/10/27 05:05:38;;;;;;;;;0.00;0.00;;;;;13.86;61.60;99085.13;5077913;27;46008;-84
2023/10/27 05:08:04;;;;;;;;;0.00;0.00;;;;;13.93;61.49;99089.44;5074756;28;45425;-86
2023/10/27 05:10:30;;;;;;;;;0.00;0.00;;;;;13.73;61.36;99044.09;5077622;27;45383;-86
2023/10/27 05:12:56;;;;;;;;;1.67;0.00;;;;;13.59;61.51;99035.44;5077690;27;45445;-85
2023/10/27 05:15:22;;;;;;;;;0.00;0.00;;;;;13.87;61.94;99068.50;5077070;27;45483;-84
2023/10/27 05:17:47;;;;;;;;;0.00;0.00;;;;;13.84;62.73;99080.75;5096511;27;44733;-80
2023/10/27 05:20:13;;;;;;;;;0.00;0.00;;;;;13.68;62.76;99048.50;5100810;28;44720;-84
2023/10/27 05:22:39;;;;;;;;;2.00;2.00;;;;;13.73;62.62;99065.97;5101846;27;45367;-85
2023/10/27 05:25:06;;;;;;;;;0.00;0.00;;;;;13.61;62.84;99045.06;5078119;28;45504;-86
2023/10/27 05:27:33;;;;;;;;;0.00;0.00;;;;;13.70;62.74;99057.22;5077999;28;45671;-78
2023/10/27 05:29:59;;;;;;;;;1.00;0.00;;;;;13.66;62.91;99047.63;5077463;27;45492;-76
2023/10/27 05:32:25;;;;;;;;;0.00;0.00;;;;;13.30;62.74;98992.75;5074763;28;45513;-86
2023/10/27 05:34:51;;;;;;;;;1.00;0.00;;;;;13.41;62.38;99005.84;5076957;27;46023;-86
2023/10/27 05:37:17;;;;;;;;;0.00;0.00;;;;;13.64;61.96;99041.53;5077377;27;45281;-86
2023/10/27 05:39:42;;;;;;;;;0.00;0.00;;;;;13.58;62.11;99024.06;5077454;27;45456;-86
2023/10/27 05:42:08;;;;;;;;;0.00;0.00;;;;;13.64;62.49;99018.78;5077477;27;45392;-85
2023/10/27 05:44:34;;;;;;;;;0.00;0.00;;;;;13.50;62.31;98999.66;5076875;27;45446;-85
2023/10/27 05:47:01;;;;;;;;;0.00;0.00;;;;;13.64;62.16;99012.66;5076915;27;45374;-86
2023/10/27 05:49:27;;;;;;;;;5.25;4.75;;;;;13.38;62.23;98960.38;5076762;27;45552;-86
2023/10/27 05:51:53;;;;;;;;;1.00;0.00;;;;;13.50;61.71;98976.03;5077125;27;45401;-85
2023/10/27 05:54:19;;;;;;;;;0.67;0.00;;;;;13.69;61.81;98979.41;5076347;27;45414;-85
2023/10/27 05:56:45;;;;;;;;;0.00;0.00;;;;;13.81;61.26;98989.81;5076830;27;45316;-84
2023/10/27 05:59:11;;;;;;;;;0.00;0.00;;;;;13.72;61.11;98959.22;5077089;27;45332;-86
2023/10/27 06:01:37;;;;;;;;;0.00;0.00;;;;;13.65;61.24;98947.06;5075917;28;45494;-85
2023/10/27 06:04:03;;;;;;;;;0.33;0.00;;;;;13.87;60.97;98981.00;5075964;28;45540;-80
2023/10/27 06:06:28;;;;;;;;;0.00;0.00;;;;;13.85;61.01;98967.03;5076664;27;45476;-82
2023/10/27 06:08:55;;;;;;;;;0.00;0.00;;;;;13.98;60.44;98975.66;5076189;28;45604;-85
2023/10/27 06:11:21;;;;;;;;;0.00;0.00;;;;;14.00;59.63;98977.38;5076543;27;45355;-85
2023/10/27 06:13:47;;;;;;;;;0.00;0.00;;;;;14.07;59.80;98986.09;5076055;28;45541;-73
2023/10/27 06:16:12;;;;;;;;;3.00;2.00;;;;;14.01;59.38;98970.38;5076405;27;45410;-85
2023/10/27 06:18:39;;;;;;;;;6.00;5.00;;;;;14.11;59.44;98978.16;5076469;27;45397;-86
2023/10/27 06:21:05;;;;;;;;;1.67;1.33;;;;;14.12;59.45;98981.63;5076545;27;45479;-86
2023/10/27 06:23:31;;;;;;;;;4.50;4.00;;;;;14.11;59.86;98986.03;5073065;28;45977;-81
2023/10/27 06:25:56;;;;;;;;;1.00;1.00;;;;;14.15;59.71;98993.91;5076217;27;45372;-85
2023/10/27 06:28:22;;;;;;;;;2.50;2.00;;;;;14.12;60.13;99006.16;5076500;27;45389;-86
2023/10/27 06:30:48;;;;;;;;;2.00;1.00;;;;;14.12;59.88;99011.41;5090757;27;45375;-84
2023/10/27 06:33:14;;;;;;;;;1.00;1.00;;;;;14.16;59.78;99014.00;5076772;28;45953;-74
2023/10/27 06:35:40;;;;;;;;;3.00;2.00;;;;;13.99;59.72;98985.28;5075845;28;45398;-83
2023/10/27 06:38:06;;;;;;;;;5.00;5.00;;;;;14.23;59.36;99013.94;5076738;27;45422;-86
2023/10/27 06:40:31;;;;;;;;;3.00;1.00;;;;;14.29;59.13;99027.00;5076881;28;45401;-81
2023/10/27 06:42:57;;;;;;;;;1.00;1.00;;;;;14.33;58.43;99015.59;5076639;27;45792;-86
2023/10/27 06:45:23;;;;;;;;;1.00;1.00;;;;;14.18;57.75;98967.59;5077231;27;45373;-87
2023/10/27 06:47:48;;;;;;;;;5.75;5.00;;;;;14.49;57.41;99000.53;5077453;27;45242;-79
2023/10/27 06:50:15;;;;;;;;;1.00;1.00;;;;;14.66;56.99;99010.00;5079641;28;45321;-88
2023/10/27 06:52:41;;;;;;;;;2.00;2.00;;;;;14.75;56.76;99016.94;5085205;27;45491;-82
2023/10/27 06:55:07;;;;;;;;;2.33;2.33;;;;;14.89;56.70;99022.91;5086880;27;45303;-79
2023/10/27 06:57:33;;;;;;;;;0.67;0.00;;;;;15.00;56.01;99022.75;5085614;27;45521;-86
2023/10/27 06:59:58;;;;;;;;;1.00;1.00;;;;;15.07;56.38;99024.44;5087507;27;45324;-85
2023/10/27 07:02:24;;;;;;;;;0.00;0.00;;;;;14.83;56.11;98965.16;5085565;27;47686;-82
2023/10/27 07:04:50;;;;;;;;;1.00;1.00;;;;;15.20;55.97;99015.50;5086332;27;45474;-85
2023/10/27 07:07:15;;;;;;;;;2.00;2.00;;;;;14.70;56.14;98931.13;5088007;27;45445;-90
2023/10/27 07:09:42;;;;;;;;;1.00;1.00;;;;;15.06;55.94;98977.97;5087058;27;45727;-89
2023/10/27 07:12:08;;;;;;;;;1.00;1.00;;;;;15.26;56.04;99009.25;5087424;27;45565;-88
2023/10/27 07:14:38;;;;;;;;;4.00;4.00;;;;;15.40;56.11;99022.22;5087311;27;45286;-88
2023/10/27 07:17:04;;;;;;;;;6.00;5.00;;;;;15.30;56.18;98990.81;5099061;27;44715;-88
2023/10/27 07:19:33;;;;;;;;;3.00;1.00;;;;;15.30;56.23;98990.81;5091658;27;45368;-87
2023/10/27 07:22:00;;;;;;;;;1.00;0.00;;;;;15.32;55.70;98982.91;5086632;27;45498;-87
2023/10/27 07:24:25;;;;;;;;;0.67;0.67;;;;;15.30;55.95;98969.75;5088996;27;45508;-80
2023/10/27 07:26:51;;;;;;;;;0.00;0.00;;;;;15.64;55.67;99019.25;5082785;27;45631;-77
2023/10/27 07:29:18;;;;;;;;;2.00;1.00;;;;;15.64;55.32;99018.41;5080647;27;45506;-74
2023/10/27 07:31:43;;;;;;;;;1.67;1.00;;;;;15.74;55.54;99040.19;5080027;27;46080;-74
2023/10/27 07:34:09;;;;;;;;;3.00;2.00;;;;;15.81;55.94;99034.81;5080211;27;45235;-74
2023/10/27 07:36:35;;;;;;;;;1.00;0.00;;;;;15.87;55.24;99036.50;5080166;27;45294;-74
2023/10/27 07:39:00;;;;;;;;;1.00;1.00;;;;;16.01;54.58;99031.84;5081049;27;45476;-83
2023/10/27 07:41:26;;;;;;;;;2.00;2.00;;;;;16.19;54.69;99030.69;5081894;27;46150;-86
2023/10/27 07:43:51;;;;;;;;;0.00;0.00;;;;;16.38;53.83;99028.59;5081019;27;45505;-82
2023/10/27 07:46:17;;;;;;;;;0.00;0.00;;;;;17.65;52.94;99004.03;5080458;27;45264;-82
2023/10/27 07:48:42;;;;;;;;;1.00;1.00;;;;;19.55;47.41;99006.84;5078835;27;45503;-82
2023/10/27 07:51:09;;;;;;;;;1.00;0.67;;;;;19.79;48.14;99015.84;5080211;27;45337;-87
2023/10/27 07:53:34;;;;;;;;;0.00;0.00;;;;;21.30;45.11;98982.22;5079747;27;45569;-87
2023/10/27 07:56:00;;;;;;;;;1.00;0.00;;;;;22.98;41.98;99000.03;5080582;27;45426;-87
2023/10/27 07:58:26;;;;;;;;;1.00;1.00;;;;;24.09;38.66;98996.56;5081588;27;45394;-89
2023/10/27 08:00:54;;;;;;;;;0.00;0.00;;;;;24.67;38.46;98982.94;5081345;27;45870;-76
2023/10/27 08:03:22;;;;;;;;;0.00;0.00;;;;;25.33;37.08;98991.91;5080665;28;45280;-90
2023/10/27 08:05:48;;;;;;;;;0.00;0.00;;;;;26.13;35.96;98987.34;5080292;27;45384;-89
2023/10/27 08:08:14;;;;;;;;;0.00;0.00;;;;;26.85;34.29;98992.88;5080016;27;45306;-89
2023/10/27 08:10:40;;;;;;;;;0.00;0.00;;;;;27.23;33.13;98995.81;5079915;27;45455;-88
2023/10/27 08:13:06;;;;;;;;;1.00;0.67;;;;;27.75;33.80;98975.50;5079674;27;45584;-89
2023/10/27 08:15:37;;;;;;;;;0.00;0.00;;;;;28.62;32.19;98987.59;5079956;27;45491;-88
2023/10/27 08:18:03;;;;;;;;;1.00;0.00;;;;;28.76;31.34;98944.47;5079816;27;45321;-89
2023/10/27 08:20:29;;;;;;;;;0.00;0.00;;;;;28.72;30.29;98987.81;5079837;27;45548;-89
2023/10/27 08:22:56;;;;;;;;;0.00;0.00;;;;;28.65;30.36;98956.94;5079310;27;45368;-89
2023/10/27 08:25:22;;;;;;;;;0.00;0.00;;;;;28.92;30.80;99003.38;5080231;27;45305;-89
2023/10/27 08:27:50;;;;;;;;;0.00;0.00;;;;;28.53;30.86;98977.47;5078661;28;45350;-90
2023/10/27 08:30:17;;;;;;;;;1.00;0.00;;;;;28.74;30.63;99013.59;5079400;27;45288;-90
2023/10/27 08:32:43;;;;;;;;;0.00;0.00;;;;;28.48;30.83;98996.56;5080704;27;45354;-90
2023/10/27 08:35:08;;;;;;;;;0.00;0.00;;;;;28.32;31.17;98974.44;5080622;27;45548;-87
2023/10/27 08:37:34;;;;;;;;;0.00;0.00;;;;;28.67;30.31;99009.63;5080404;27;45512;-87
2023/10/27 08:40:00;;;;;;;;;0.00;0.00;;;;;28.92;30.28;99021.34;5079660;27;45503;-86
2023/10/27 08:42:32;;;;;;;;;0.00;0.00;;;;;28.56;31.65;99015.72;5079250;28;45580;-87
2023/10/27 08:44:58;;;;;;;;;0.00;0.00;;;;;27.47;31.80;98973.78;5078862;27;45408;-89
2023/10/27 08:47:25;;;;;;;;;0.00;0.00;;;;;27.06;33.34;99012.09;5079357;27;45273;-77
2023/10/27 08:49:51;;;;;;;;;0.00;0.00;;;;;26.86;32.86;99007.97;5079042;28;46382;-87
2023/10/27 08:52:18;;;;;;;;;7.67;7.67;;;;;25.92;33.72;99006.34;5077335;28;45392;-89
2023/10/27 08:54:45;;;;;;;;;0.00;0.00;;;;;25.42;35.05;99043.97;5078695;27;45437;-89
2023/10/27 08:57:11;;;;;;;;;2.00;2.00;;;;;24.50;35.60;99044.31;5079090;27;45257;-90
2023/10/27 08:59:37;;;;;;;;;0.00;0.00;;;;;23.73;36.57;99018.75;5078962;27;46147;-90
2023/10/27 09:02:04;;;;;;;;;0.00;0.00;;;;;22.74;37.65;98999.34;5079599;27;45345;-88
2023/10/27 09:04:31;;;;;;;;;0.00;0.00;;;;;22.34;38.91;99029.47;5079484;27;45622;-88
2023/10/27 09:06:57;;;;;;;;;0.00;0.00;;;;;21.97;40.51;99066.41;5079554;27;45185;-88
2023/10/27 09:09:23;;;;;;;;;0.00;0.00;;;;;21.54;41.34;99062.78;5079435;28;45507;-88
2023/10/27 09:11:50;;;;;;;;;1.00;0.00;;;;;21.12;42.76;99076.72;5080376;27;45189;-89
2023/10/27 09:14:33;;;;;;;;;0.67;0.00;;;;;20.95;43.29;99090.63;5079420;27;45192;-88
2023/10/27 09:17:11;;;;;;;;;0.00;0.00;;;;;20.84;43.38;99090.97;5078509;27;45540;-89
2023/10/27 09:19:39;;;;;;;;;1.67;1.67;;;;;20.53;44.28;99091.16;5078561;27;46227;-89
2023/10/27 09:22:15;;;;;;;;;0.00;0.00;;;;;19.99;45.30;99061.09;5077884;27;45485;-89
2023/10/27 09:24:42;;;;;;;;;2.67;2.67;;;;;19.70;44.68;99039.97;5078800;28;45848;-89
2023/10/27 09:27:08;;;;;;;;;1.00;0.00;;;;;20.18;44.73;99109.09;5079030;27;45342;-84
2023/10/27 09:29:41;;;;;;;;;1.00;1.00;;;;;20.22;45.54;99109.88;5078516;27;45260;-89
2023/10/27 09:32:26;;;;;;;;;2.33;2.33;;;;;20.14;45.25;99106.63;5080109;27;45737;-84
2023/10/27 09:35:09;;;;;;;;;0.00;0.00;;;;;20.10;45.71;99112.94;5079133;27;45563;-88
2023/10/27 09:37:37;;;;;;;;;0.67;0.00;;;;;20.11;45.45;99123.47;5079344;27;45290;-89
2023/10/27 09:40:08;;;;;;;;;0.67;0.00;;;;;20.04;45.50;99114.84;5084110;27;46039;-86
2023/10/27 09:42:37;;;;;;;;;0.00;0.00;;;;;19.99;45.40;99116.75;5088333;27;45240;-88
2023/10/27 09:45:07;;;;;;;;;0.33;0.33;;;;;19.89;46.34;99117.09;5079021;27;45458;-88
2023/10/27 09:47:38;;;;;;;;;5.67;5.67;;;;;19.94;46.49;99121.34;5079140;28;45306;-88
2023/10/27 09:50:06;;;;;;;;;0.00;0.00;;;;;19.57;45.82;99080.03;5078954;27;45422;-87
2023/10/27 09:52:33;;;;;;;;;0.67;0.00;;;;;19.75;45.77;99110.44;5078762;27;45636;-88
2023/10/27 09:55:02;;;;;;;;;0.00;0.00;;;;;19.91;46.39;99140.00;5078701;27;45394;-85
2023/10/27 09:57:29;;;;;;;;;0.00;0.00;;;;;19.78;46.36;99107.72;5084064;27;45199;-84
2023/10/27 09:59:58;;;;;;;;;0.00;0.00;;;;;19.62;45.99;99101.13;5105924;27;45616;-76
2023/10/27 10:02:25;;;;;;;;;0.33;0.33;;;;;19.71;46.47;99113.22;5105048;27;44870;-80
2023/10/27 10:04:51;;;;;;;;;0.00;0.00;;;;;19.95;46.48;99146.94;5097911;27;45354;-88
2023/10/27 10:07:30;;;;;;;;;0.00;0.00;;;;;19.51;46.55;99074.94;5080176;27;45322;-88
2023/10/27 10:09:56;;;;;;;;;0.00;0.00;;;;;20.19;46.45;99142.69;5079490;28;46595;-88
2023/10/27 10:12:22;;;;;;;;;0.00;0.00;;;;;20.38;46.13;99131.47;5078485;27;45406;-87
2023/10/27 10:14:49;;;;;;;;;14.33;14.00;;;;;20.67;45.57;99143.78;5077086;27;45359;-88
2023/10/27 10:17:37;;;;;;;;;0.67;0.00;;;;;20.87;45.01;99137.81;5079140;28;45319;-87
2023/10/27 10:20:03;;;;;;;;;0.33;0.00;;;;;20.76;45.25;99110.75;5078145;28;46475;-87
2023/10/27 10:22:44;;;;;;;;;0.00;0.00;;;;;21.18;44.81;99134.91;5079243;27;45161;-87
2023/10/27 10:25:25;;;;;;;;;0.00;0.00;;;;;21.36;44.18;99138.69;5078161;27;45387;-88
2023/10/27 10:28:09;;;;;;;;;0.00;0.00;;;;;21.52;44.01;99133.72;5078463;27;45215;-88
2023/10/27 10:30:37;;;;;;;;;0.00;0.00;;;;;21.68;43.60;99118.06;5080287;27;45326;-88
2023/10/27 10:33:19;;;;;;;;;0.00;0.00;;;;;22.14;42.47;99139.31;5078536;27;45378;-87
2023/10/27 10:35:49;;;;;;;;;1.67;1.67;;;;;22.27;43.07;99159.22;5078655;27;45575;-88
2023/10/27 10:38:24;;;;;;;;;0.00;0.00;;;;;22.32;42.61;99153.69;5078759;27;45374;-87
2023/10/27 10:40:54;;;;;;;;;1.00;0.00;;;;;22.38;42.18;99159.66;5079618;27;45329;-88
2023/10/27 10:43:40;;;;;;;;;0.00;0.00;;;;;22.62;42.64;99159.53;5081593;27;45163;-88
2023/10/27 10:46:10;;;;;;;;;0.00;0.00;;;;;22.86;42.50;99165.66;5080257;27;45754;-82
2023/10/27 10:48:41;;;;;;;;;0.00;0.00;;;;;22.73;41.79;99170.63;5078244;27;45367;-87
2023/10/27 10:51:12;;;;;;;;;0.67;0.00;;;;;22.37;42.52;99133.09;5080179;27;45946;-88
2023/10/27 10:53:38;;;;;;;;;5.00;3.00;;;;;22.64;44.20;99177.22;5080543;27;45230;-81
2023/10/27 10:56:04;;;;;;;;;1.00;0.00;;;;;22.66;44.75;99187.81;5081228;27;45287;-87
2023/10/27 10:58:36;;;;;;;;;0.67;0.67;;;;;22.53;45.14;99147.50;5081101;28;45575;-89
2023/10/27 11:01:03;;;;;;;;;2.00;2.00;;;;;22.79;45.52;99170.38;5079441;27;45602;-75
2023/10/27 11:03:34;;;;;;;;;0.67;0.00;;;;;22.78;46.21;99175.75;5080889;27;45185;-87
2023/10/27 11:06:07;;;;;;;;;0.00;0.00;;;;;22.51;46.24;99136.06;5082294;27;45393;-88
2023/10/27 11:08:35;;;;;;;;;0.00;0.00;;;;;22.73;46.30;99151.13;5082112;27;45453;-75
2023/10/27 11:11:03;;;;;;;;;3.33;3.33;;;;;22.80;46.12;99157.91;5081523;27;46492;-88
2023/10/27 11:13:33;;;;;;;;;3.33;3.33;;;;;22.92;46.84;99154.75;5080795;27;45165;-75
2023/10/27 11:16:03;;;;;;;;;0.00;0.00;;;;;23.14;43.00;99149.38;5080558;28;45429;-75
2023/10/27 11:18:31;;;;;;;;;3.00;2.33;;;;;23.32;44.06;99150.38;5080665;27;45522;-77
2023/10/27 11:20:57;;;;;;;;;1.00;1.00;;;;;23.56;42.97;99155.53;5079951;27;46281;-75
2023/10/27 11:23:31;;;;;;;;;0.00;0.00;;;;;23.61;42.29;99132.16;5079724;27;45393;-75
2023/10/27 11:26:02;;;;;;;;;0.00;0.00;;;;;23.49;41.72;99095.44;5080090;27;45394;-75
2023/10/27 11:28:28;;;;;;;;;0.00;0.00;;;;;23.93;41.75;99146.69;5078708;27;45266;-76
2023/10/27 11:31:12;;;;;;;;;0.00;0.00;;;;;23.98;41.29;99154.50;5080017;27;45311;-75
2023/10/27 11:34:04;;;;;;;;;1.00;0.00;;;;;24.27;40.39;99145.06;5079846;27;45207;-75